sensor_id;sensor_type;location;lat;lon;timestamp;temperature;humidity
40538;DHT22;27925;41.874;12.526;2022-12-20T00:01:32;9.70;89.70
40538;DHT22;27925;41.874;12.526;2022-12-20T00:04:01;9.80;89.80
40538;DHT22;27925;41.874;12.526;2022-12-20T00:06:28;9.80;89.90
40538;DHT22;27925;41.874;12.526;2022-12-20T00:08:55;9.80;89.80
40538;DHT22;27925;41.874;12.526;2022-12-20T00:11:22;9.80;89.90
40538;DHT22;27925;41.874;12.526;2022-12-20T00:13:49;9.90;89.70
40538;DHT22;27925;41.874;12.526;2022-12-20T00:16:18;9.80;89.40
40538;DHT22;27925;41.874;12.526;2022-12-20T00:18:45;9.80;89.40
40538;DHT22;27925;41.874;12.526;2022-12-20T00:21:12;9.80;89.50
40538;DHT22;27925;41.874;12.526;2022-12-20T00:23:39;9.70;89.50
40538;DHT22;27925;41.874;12.526;2022-12-20T00:26:13;9.70;89.50
40538;DHT22;27925;41.874;12.526;2022-12-20T00:28:40;9.60;89.00
40538;DHT22;27925;41.874;12.526;2022-12-20T00:31:08;9.60;89.90
40538;DHT22;27925;41.874;12.526;2022-12-20T00:33:35;9.60;89.90
40538;DHT22;27925;41.874;12.526;2022-12-20T00:36:02;9.60;89.70
40538;DHT22;27925;41.874;12.526;2022-12-20T00:38:28;9.50;89.80
40538;DHT22;27925;41.874;12.526;2022-12-20T00:41:09;9.40;89.70
40538;DHT22;27925;41.874;12.526;2022-12-20T00:43:35;9.40;89.30
40538;DHT22;27925;41.874;12.526;2022-12-20T00:46:01;9.40;90.30
40538;DHT22;27925;41.874;12.526;2022-12-20T00:48:28;9.40;90.00
40538;DHT22;27925;41.874;12.526;2022-12-20T00:50:58;9.40;89.80
40538;DHT22;27925;41.874;12.526;2022-12-20T00:53:24;9.40;90.00
40538;DHT22;27925;41.874;12.526;2022-12-20T00:55:49;9.30;89.90
40538;DHT22;27925;41.874;12.526;2022-12-20T00:58:15;9.30;89.40
40538;DHT22;27925;41.874;12.526;2022-12-20T01:00:41;9.30;90.00
40538;DHT22;27925;41.874;12.526;2022-12-20T01:03:07;9.30;89.70
40538;DHT22;27925;41.874;12.526;2022-12-20T01:05:33;9.30;89.90
40538;DHT22;27925;41.874;12.526;2022-12-20T01:07:59;9.30;89.60
40538;DHT22;27925;41.874;12.526;2022-12-20T01:10:25;9.30;89.80
40538;DHT22;27925;41.874;12.526;2022-12-20T01:12:52;9.40;89.70
40538;DHT22;27925;41.874;12.526;2022-12-20T01:15:18;9.30;89.40
40538;DHT22;27925;41.874;12.526;2022-12-20T01:17:45;9.30;89.70
40538;DHT22;27925;41.874;12.526;2022-12-20T01:20:11;9.30;89.50
40538;DHT22;27925;41.874;12.526;2022-12-20T01:22:37;9.20;89.50
40538;DHT22;27925;41.874;12.526;2022-12-20T01:25:04;9.20;89.50
40538;DHT22;27925;41.874;12.526;2022-12-20T01:27:30;9.30;89.80
40538;DHT22;27925;41.874;12.526;2022-12-20T01:29:56;9.20;89.70
40538;DHT22;27925;41.874;12.526;2022-12-20T01:32:22;9.20;89.60
40538;DHT22;27925;41.874;12.526;2022-12-20T01:34:47;9.20;89.70
40538;DHT22;27925;41.874;12.526;2022-12-20T01:37:13;9.10;89.30
40538;DHT22;27925;41.874;12.526;2022-12-20T01:39:39;9.10;89.60
40538;DHT22;27925;41.874;12.526;2022-12-20T01:42:05;9.10;89.60
40538;DHT22;27925;41.874;12.526;2022-12-20T01:46:57;9.10;89.60
40538;DHT22;27925;41.874;12.526;2022-12-20T01:49:37;9.10;89.70
40538;DHT22;27925;41.874;12.526;2022-12-20T01:52:06;9.10;88.90
40538;DHT22;27925;41.874;12.526;2022-12-20T01:54:39;9.10;89.50
40538;DHT22;27925;41.874;12.526;2022-12-20T01:57:17;9.10;89.70
40538;DHT22;27925;41.874;12.526;2022-12-20T01:59:45;9.10;89.60
40538;DHT22;27925;41.874;12.526;2022-12-20T02:02:13;9.10;89.60
40538;DHT22;27925;41.874;12.526;2022-12-20T02:04:39;9.10;89.70
40538;DHT22;27925;41.874;12.526;2022-12-20T02:07:05;9.00;89.20
40538;DHT22;27925;41.874;12.526;2022-12-20T02:09:33;9.00;89.50
40538;DHT22;27925;41.874;12.526;2022-12-20T02:12:21;9.00;89.30
40538;DHT22;27925;41.874;12.526;2022-12-20T02:23:06;9.00;89.00
40538;DHT22;27925;41.874;12.526;2022-12-20T02:30:53;9.00;89.30
40538;DHT22;27925;41.874;12.526;2022-12-20T02:33:21;9.00;89.50
40538;DHT22;27925;41.874;12.526;2022-12-20T02:35:49;9.00;89.40
40538;DHT22;27925;41.874;12.526;2022-12-20T02:38:34;9.00;89.40
40538;DHT22;27925;41.874;12.526;2022-12-20T02:41:31;9.00;89.00
40538;DHT22;27925;41.874;12.526;2022-12-20T02:43:59;9.00;89.60
40538;DHT22;27925;41.874;12.526;2022-12-20T02:46:45;8.90;89.80
40538;DHT22;27925;41.874;12.526;2022-12-20T02:49:15;8.90;89.40
40538;DHT22;27925;41.874;12.526;2022-12-20T02:51:45;8.90;89.70
40538;DHT22;27925;41.874;12.526;2022-12-20T02:54:11;8.80;89.50
40538;DHT22;27925;41.874;12.526;2022-12-20T02:56:41;8.80;89.80
40538;DHT22;27925;41.874;12.526;2022-12-20T02:59:38;8.80;90.00
40538;DHT22;27925;41.874;12.526;2022-12-20T03:02:06;8.70;89.70
40538;DHT22;27925;41.874;12.526;2022-12-20T03:04:36;8.80;90.00
40538;DHT22;27925;41.874;12.526;2022-12-20T03:07:07;8.80;89.90
40538;DHT22;27925;41.874;12.526;2022-12-20T03:09:35;8.80;89.90
40538;DHT22;27925;41.874;12.526;2022-12-20T03:12:01;8.80;90.00
40538;DHT22;27925;41.874;12.526;2022-12-20T03:14:27;8.80;89.60
40538;DHT22;27925;41.874;12.526;2022-12-20T03:16:53;8.70;89.90
40538;DHT22;27925;41.874;12.526;2022-12-20T03:19:19;8.70;90.00
40538;DHT22;27925;41.874;12.526;2022-12-20T03:21:44;8.70;90.00
40538;DHT22;27925;41.874;12.526;2022-12-20T03:24:11;8.70;90.00
40538;DHT22;27925;41.874;12.526;2022-12-20T03:26:39;8.70;90.00
40538;DHT22;27925;41.874;12.526;2022-12-20T03:29:05;8.60;90.00
40538;DHT22;27925;41.874;12.526;2022-12-20T03:31:31;8.60;89.90
40538;DHT22;27925;41.874;12.526;2022-12-20T03:33:56;8.50;89.80
40538;DHT22;27925;41.874;12.526;2022-12-20T03:36:22;8.40;90.00
40538;DHT22;27925;41.874;12.526;2022-12-20T03:38:50;8.40;90.10
40538;DHT22;27925;41.874;12.526;2022-12-20T03:41:16;8.40;90.10
40538;DHT22;27925;41.874;12.526;2022-12-20T03:43:41;8.40;90.10
40538;DHT22;27925;41.874;12.526;2022-12-20T03:46:07;8.40;90.00
40538;DHT22;27925;41.874;12.526;2022-12-20T03:48:33;8.40;90.10
40538;DHT22;27925;41.874;12.526;2022-12-20T03:50:59;8.40;90.20
40538;DHT22;27925;41.874;12.526;2022-12-20T03:53:25;8.40;90.10
40538;DHT22;27925;41.874;12.526;2022-12-20T03:55:50;8.40;90.00
40538;DHT22;27925;41.874;12.526;2022-12-20T03:58:16;8.40;90.10
40538;DHT22;27925;41.874;12.526;2022-12-20T04:00:42;8.40;90.00
40538;DHT22;27925;41.874;12.526;2022-12-20T04:03:09;8.40;89.70
40538;DHT22;27925;41.874;12.526;2022-12-20T04:05:35;8.40;90.30
40538;DHT22;27925;41.874;12.526;2022-12-20T04:08:01;8.40;90.00
40538;DHT22;27925;41.874;12.526;2022-12-20T04:10:26;8.40;90.10
40538;DHT22;27925;41.874;12.526;2022-12-20T04:12:52;8.40;90.10
40538;DHT22;27925;41.874;12.526;2022-12-20T04:15:18;8.30;89.90
40538;DHT22;27925;41.874;12.526;2022-12-20T04:17:44;8.30;90.00
40538;DHT22;27925;41.874;12.526;2022-12-20T04:20:13;8.40;90.00
40538;DHT22;27925;41.874;12.526;2022-12-20T04:22:49;8.40;90.20
40538;DHT22;27925;41.874;12.526;2022-12-20T04:25:17;8.50;89.10
40538;DHT22;27925;41.874;12.526;2022-12-20T04:27:43;8.50;90.00
40538;DHT22;27925;41.874;12.526;2022-12-20T04:30:10;8.50;90.10
40538;DHT22;27925;41.874;12.526;2022-12-20T04:32:36;8.50;90.00
40538;DHT22;27925;41.874;12.526;2022-12-20T04:35:02;8.40;89.80
40538;DHT22;27925;41.874;12.526;2022-12-20T04:37:29;8.40;90.10
40538;DHT22;27925;41.874;12.526;2022-12-20T04:39:56;8.50;90.00
40538;DHT22;27925;41.874;12.526;2022-12-20T04:42:23;8.50;90.10
40538;DHT22;27925;41.874;12.526;2022-12-20T04:44:49;8.40;89.90
40538;DHT22;27925;41.874;12.526;2022-12-20T04:47:15;8.40;89.90
40538;DHT22;27925;41.874;12.526;2022-12-20T04:49:40;8.40;89.90
40538;DHT22;27925;41.874;12.526;2022-12-20T04:52:06;8.40;90.00
40538;DHT22;27925;41.874;12.526;2022-12-20T04:54:50;8.40;90.10
40538;DHT22;27925;41.874;12.526;2022-12-20T04:57:16;8.40;89.80
40538;DHT22;27925;41.874;12.526;2022-12-20T04:59:41;8.40;89.90
40538;DHT22;27925;41.874;12.526;2022-12-20T05:02:07;8.40;89.70
40538;DHT22;27925;41.874;12.526;2022-12-20T05:04:33;8.30;89.80
40538;DHT22;27925;41.874;12.526;2022-12-20T05:06:58;8.30;89.90
40538;DHT22;27925;41.874;12.526;2022-12-20T05:09:24;8.30;90.00
40538;DHT22;27925;41.874;12.526;2022-12-20T05:11:50;8.30;90.00
40538;DHT22;27925;41.874;12.526;2022-12-20T05:14:15;8.20;89.90
40538;DHT22;27925;41.874;12.526;2022-12-20T05:16:41;8.20;90.00
40538;DHT22;27925;41.874;12.526;2022-12-20T05:19:07;8.20;90.00
40538;DHT22;27925;41.874;12.526;2022-12-20T05:21:32;8.30;89.90
40538;DHT22;27925;41.874;12.526;2022-12-20T05:24:16;8.20;89.70
40538;DHT22;27925;41.874;12.526;2022-12-20T05:27:01;8.20;89.70
40538;DHT22;27925;41.874;12.526;2022-12-20T05:29:27;8.20;90.00
40538;DHT22;27925;41.874;12.526;2022-12-20T05:31:52;8.30;90.00
40538;DHT22;27925;41.874;12.526;2022-12-20T05:34:19;8.20;89.60
40538;DHT22;27925;41.874;12.526;2022-12-20T05:36:45;8.20;90.00
40538;DHT22;27925;41.874;12.526;2022-12-20T05:39:12;8.20;89.40
40538;DHT22;27925;41.874;12.526;2022-12-20T05:41:39;8.20;90.20
40538;DHT22;27925;41.874;12.526;2022-12-20T05:44:06;8.20;90.30
40538;DHT22;27925;41.874;12.526;2022-12-20T05:46:32;8.10;90.20
40538;DHT22;27925;41.874;12.526;2022-12-20T05:48:57;8.10;90.00
40538;DHT22;27925;41.874;12.526;2022-12-20T05:51:24;8.20;90.20
40538;DHT22;27925;41.874;12.526;2022-12-20T05:53:49;8.20;90.10
40538;DHT22;27925;41.874;12.526;2022-12-20T05:56:15;8.20;90.10
40538;DHT22;27925;41.874;12.526;2022-12-20T05:58:41;8.20;90.10
40538;DHT22;27925;41.874;12.526;2022-12-20T06:01:08;8.10;90.20
40538;DHT22;27925;41.874;12.526;2022-12-20T06:03:35;8.10;90.20
40538;DHT22;27925;41.874;12.526;2022-12-20T06:06:00;8.10;90.10
40538;DHT22;27925;41.874;12.526;2022-12-20T06:08:26;8.20;90.10
40538;DHT22;27925;41.874;12.526;2022-12-20T06:10:52;8.20;90.20
40538;DHT22;27925;41.874;12.526;2022-12-20T06:13:18;8.10;90.00
40538;DHT22;27925;41.874;12.526;2022-12-20T06:15:44;8.10;90.00
40538;DHT22;27925;41.874;12.526;2022-12-20T06:18:09;8.00;89.90
40538;DHT22;27925;41.874;12.526;2022-12-20T06:20:36;7.90;90.00
40538;DHT22;27925;41.874;12.526;2022-12-20T06:23:02;7.90;90.00
40538;DHT22;27925;41.874;12.526;2022-12-20T06:25:29;7.90;90.10
40538;DHT22;27925;41.874;12.526;2022-12-20T06:27:55;7.90;90.10
40538;DHT22;27925;41.874;12.526;2022-12-20T06:30:20;7.90;90.10
40538;DHT22;27925;41.874;12.526;2022-12-20T06:32:46;7.90;90.00
40538;DHT22;27925;41.874;12.526;2022-12-20T06:35:12;7.90;90.10
40538;DHT22;27925;41.874;12.526;2022-12-20T06:37:39;8.00;89.80
40538;DHT22;27925;41.874;12.526;2022-12-20T06:40:11;7.90;89.70
40538;DHT22;27925;41.874;12.526;2022-12-20T06:42:37;7.90;89.30
40538;DHT22;27925;41.874;12.526;2022-12-20T06:45:04;7.80;89.90
40538;DHT22;27925;41.874;12.526;2022-12-20T06:47:30;7.90;90.00
40538;DHT22;27925;41.874;12.526;2022-12-20T06:49:55;8.00;90.10
40538;DHT22;27925;41.874;12.526;2022-12-20T06:52:22;8.00;90.00
40538;DHT22;27925;41.874;12.526;2022-12-20T06:54:47;8.00;90.10
40538;DHT22;27925;41.874;12.526;2022-12-20T06:57:13;8.10;90.00
40538;DHT22;27925;41.874;12.526;2022-12-20T06:59:39;8.20;90.00
40538;DHT22;27925;41.874;12.526;2022-12-20T07:02:05;8.10;89.40
40538;DHT22;27925;41.874;12.526;2022-12-20T07:04:31;8.10;90.00
40538;DHT22;27925;41.874;12.526;2022-12-20T07:06:57;8.00;89.30
40538;DHT22;27925;41.874;12.526;2022-12-20T07:09:23;8.10;89.90
40538;DHT22;27925;41.874;12.526;2022-12-20T07:11:49;8.10;89.80
40538;DHT22;27925;41.874;12.526;2022-12-20T07:14:15;8.20;89.80
40538;DHT22;27925;41.874;12.526;2022-12-20T07:16:40;8.20;89.50
40538;DHT22;27925;41.874;12.526;2022-12-20T07:19:12;8.20;89.60
40538;DHT22;27925;41.874;12.526;2022-12-20T07:21:38;8.30;89.60
40538;DHT22;27925;41.874;12.526;2022-12-20T07:24:05;8.30;89.60
40538;DHT22;27925;41.874;12.526;2022-12-20T22:26:28;10.00;88.40
40538;DHT22;27925;41.874;12.526;2022-12-20T22:28:56;10.10;88.80
40538;DHT22;27925;41.874;12.526;2022-12-20T22:31:23;10.10;88.70
40538;DHT22;27925;41.874;12.526;2022-12-20T22:33:54;10.10;88.40
40538;DHT22;27925;41.874;12.526;2022-12-20T22:36:21;10.10;88.50
40538;DHT22;27925;41.874;12.526;2022-12-20T22:38:49;10.10;88.50
40538;DHT22;27925;41.874;12.526;2022-12-20T22:41:17;10.10;88.40
40538;DHT22;27925;41.874;12.526;2022-12-20T22:43:44;10.00;88.60
40538;DHT22;27925;41.874;12.526;2022-12-20T22:46:12;10.00;88.50
40538;DHT22;27925;41.874;12.526;2022-12-20T22:48:39;10.10;88.60
40538;DHT22;27925;41.874;12.526;2022-12-20T22:51:11;10.10;88.40
40538;DHT22;27925;41.874;12.526;2022-12-20T22:53:37;10.10;88.30
40538;DHT22;27925;41.874;12.526;2022-12-20T22:56:04;10.00;88.50
40538;DHT22;27925;41.874;12.526;2022-12-20T22:58:31;10.00;88.40
40538;DHT22;27925;41.874;12.526;2022-12-20T23:00:59;10.00;88.60
40538;DHT22;27925;41.874;12.526;2022-12-20T23:03:26;10.00;88.40
40538;DHT22;27925;41.874;12.526;2022-12-20T23:05:54;9.90;89.20
40538;DHT22;27925;41.874;12.526;2022-12-20T23:08:24;9.90;89.60
40538;DHT22;27925;41.874;12.526;2022-12-20T23:10:50;9.90;89.50
40538;DHT22;27925;41.874;12.526;2022-12-20T23:13:34;10.00;88.50
40538;DHT22;27925;41.874;12.526;2022-12-20T23:16:18;9.90;89.30
40538;DHT22;27925;41.874;12.526;2022-12-20T23:18:44;9.90;89.40
40538;DHT22;27925;41.874;12.526;2022-12-20T23:21:10;9.90;89.80
40538;DHT22;27925;41.874;12.526;2022-12-20T23:23:54;9.80;89.50
40538;DHT22;27925;41.874;12.526;2022-12-20T23:26:20;9.80;89.90
40538;DHT22;27925;41.874;12.526;2022-12-20T23:28:46;9.80;89.90
40538;DHT22;27925;41.874;12.526;2022-12-20T23:31:12;9.90;90.00
40538;DHT22;27925;41.874;12.526;2022-12-20T23:33:38;9.80;89.70
40538;DHT22;27925;41.874;12.526;2022-12-20T23:36:04;9.80;90.00
40538;DHT22;27925;41.874;12.526;2022-12-20T23:38:35;9.80;90.00
40538;DHT22;27925;41.874;12.526;2022-12-20T23:41:06;9.80;90.10
40538;DHT22;27925;41.874;12.526;2022-12-20T23:43:32;9.70;90.10
40538;DHT22;27925;41.874;12.526;2022-12-20T23:46:15;9.70;90.10
40538;DHT22;27925;41.874;12.526;2022-12-20T23:48:41;9.70;90.20
40538;DHT22;27925;41.874;12.526;2022-12-20T23:51:07;9.70;90.30
40538;DHT22;27925;41.874;12.526;2022-12-20T23:53:34;9.80;90.30
40538;DHT22;27925;41.874;12.526;2022-12-20T23:58:25;9.80;90.20
